Time;durP1;ratioP1;P1;durP2;ratioP2;P2;SDS_P1;SDS_P2;PMS_P1;PMS_P2;Temp;Humidity;BMP_temperature;BMP_pressure;BME280_temperature;BME280_humidity;BME280_pressure;Samples;Min_cycle;Max_cycle;Signal;HPM_P1;HPM_P2
2023/07/11 00:01:29;;;;;;;2.58;2.47;;;;;;;;;;5108616;28;20032;-80
2023/07/11 00:03:55;;;;;;;3.30;2.35;;;;;;;;;;5096303;28;20040;-80
2023/07/11 00:06:21;;;;;;;4.85;2.55;;;;;;;;;;5078644;28;20028;-80
2023/07/11 00:08:47;;;;;;;2.75;2.55;;;;;;;;;;5096081;28;20063;-81
2023/07/11 00:11:16;;;;;;;3.55;3.17;;;;;;;;;;5096971;28;20127;-80
2023/07/11 00:13:41;;;;;;;2.92;2.78;;;;;;;;;;5095501;28;20464;-81
2023/07/11 00:16:08;;;;;;;2.83;2.20;;;;;;;;;;5094254;28;20035;-81
2023/07/11 00:18:34;;;;;;;2.13;1.88;;;;;;;;;;5095727;28;20044;-80
2023/07/11 00:21:02;;;;;;;2.00;1.90;;;;;;;;;;5098295;28;20028;-79
2023/07/11 00:23:27;;;;;;;1.90;1.80;;;;;;;;;;5088877;28;20035;-81
2023/07/11 00:25:53;;;;;;;2.03;1.90;;;;;;;;;;5102778;28;20470;-81
2023/07/11 00:28:20;;;;;;;2.13;1.95;;;;;;;;;;5095520;28;20043;-81
2023/07/11 00:30:47;;;;;;;3.05;2.08;;;;;;;;;;5093026;28;20040;-81
2023/07/11 00:33:13;;;;;;;2.08;1.95;;;;;;;;;;5059070;28;20048;-79
2023/07/11 00:35:39;;;;;;;3.08;2.00;;;;;;;;;;5093926;28;20035;-80
2023/07/11 00:38:05;;;;;;;2.53;1.83;;;;;;;;;;5093670;28;20624;-80
2023/07/11 00:40:31;;;;;;;2.20;2.10;;;;;;;;;;5092587;28;20028;-81
2023/07/11 00:42:59;;;;;;;2.70;2.40;;;;;;;;;;5093836;28;20569;-81
2023/07/11 00:45:45;;;;;;;3.97;2.95;;;;;;;;;;5093897;28;20054;-80
2023/07/11 00:48:11;;;;;;;3.40;2.28;;;;;;;;;;5075754;28;20131;-80
2023/07/11 00:50:38;;;;;;;2.42;2.22;;;;;;;;;;5093935;28;20517;-79
2023/07/11 00:53:04;;;;;;;2.30;2.20;;;;;;;;;;5075581;28;20052;-80
2023/07/11 00:55:30;;;;;;;2.55;2.05;;;;;;;;;;5075243;28;20454;-80
2023/07/11 00:57:56;;;;;;;2.40;2.30;;;;;;;;;;5092515;28;20309;-80
2023/07/11 01:00:21;;;;;;;3.70;2.53;;;;;;;;;;5092394;28;20063;-80
2023/07/11 01:02:48;;;;;;;2.53;2.30;;;;;;;;;;5093696;28;20032;-80
2023/07/11 01:05:15;;;;;;;4.18;3.08;;;;;;;;;;5092822;28;20040;-80
2023/07/11 01:07:41;;;;;;;5.47;3.33;;;;;;;;;;5092919;28;20028;-80
2023/07/11 01:10:08;;;;;;;3.00;2.53;;;;;;;;;;5091811;28;20043;-80
2023/07/11 01:12:34;;;;;;;4.85;2.85;;;;;;;;;;5092393;28;20079;-80
2023/07/11 01:15:00;;;;;;;3.63;3.33;;;;;;;;;;5094545;28;20542;-80
2023/07/11 01:17:29;;;;;;;4.10;2.97;;;;;;;;;;5094262;28;20054;-80
2023/07/11 01:19:55;;;;;;;3.47;3.28;;;;;;;;;;5093604;28;20032;-80
2023/07/11 01:22:22;;;;;;;3.35;3.15;;;;;;;;;;5093198;28;20063;-78
2023/07/11 01:24:48;;;;;;;4.25;3.78;;;;;;;;;;5093249;28;20056;-80
2023/07/11 01:27:15;;;;;;;3.75;3.38;;;;;;;;;;5091942;28;20040;-80
2023/07/11 01:29:41;;;;;;;3.53;3.30;;;;;;;;;;5091770;28;20039;-79
2023/07/11 01:32:08;;;;;;;3.17;2.90;;;;;;;;;;5092586;28;20130;-79
2023/07/11 01:34:34;;;;;;;4.50;3.45;;;;;;;;;;5074565;28;20028;-79
2023/07/11 01:37:00;;;;;;;6.38;3.75;;;;;;;;;;5092752;28;20063;-81
2023/07/11 01:39:26;;;;;;;3.28;3.15;;;;;;;;;;5092570;28;20028;-80
2023/07/11 01:41:52;;;;;;;3.28;3.08;;;;;;;;;;5092991;28;20405;-80
2023/07/11 01:44:18;;;;;;;3.90;2.83;;;;;;;;;;5092630;28;20119;-80
2023/07/11 01:46:44;;;;;;;4.00;3.60;;;;;;;;;;5092361;28;20035;-80
2023/07/11 01:49:10;;;;;;;3.40;3.20;;;;;;;;;;5092381;28;20105;-80
2023/07/11 01:51:36;;;;;;;3.20;3.00;;;;;;;;;;5091161;28;20040;-81
2023/07/11 01:54:02;;;;;;;3.88;3.58;;;;;;;;;;5074445;28;20513;-79
2023/07/11 01:56:28;;;;;;;6.20;3.80;;;;;;;;;;5074639;28;20036;-81
2023/07/11 01:58:54;;;;;;;3.75;3.50;;;;;;;;;;5092961;28;20399;-79
2023/07/11 02:01:20;;;;;;;4.10;3.85;;;;;;;;;;5074332;28;20032;-79
2023/07/11 02:03:46;;;;;;;3.78;3.47;;;;;;;;;;5092941;28;20036;-80
2023/07/11 02:06:12;;;;;;;5.05;3.55;;;;;;;;;;5092465;28;20031;-78
2023/07/11 02:08:38;;;;;;;3.10;2.90;;;;;;;;;;5092622;28;20477;-79
2023/07/11 02:11:04;;;;;;;4.10;3.60;;;;;;;;;;5091066;28;20549;-81
2023/07/11 02:13:30;;;;;;;4.18;3.25;;;;;;;;;;5090875;28;20510;-81
2023/07/11 02:15:56;;;;;;;3.53;3.33;;;;;;;;;;5090676;28;20050;-81
2023/07/11 02:18:23;;;;;;;3.90;3.47;;;;;;;;;;5090444;28;20040;-79
2023/07/11 02:20:50;;;;;;;3.35;3.10;;;;;;;;;;5090786;28;20104;-79
2023/07/11 02:23:16;;;;;;;3.47;3.28;;;;;;;;;;5091862;28;20039;-79
2023/07/11 02:25:42;;;;;;;2.97;2.85;;;;;;;;;;5092327;28;20510;-81
2023/07/11 02:28:08;;;;;;;3.90;2.95;;;;;;;;;;5041028;28;20028;-80
2023/07/11 02:30:34;;;;;;;3.45;3.17;;;;;;;;;;5092161;28;20036;-80
2023/07/11 02:33:01;;;;;;;2.45;2.30;;;;;;;;;;5092092;28;20526;-81
2023/07/11 02:35:27;;;;;;;2.78;2.53;;;;;;;;;;5092000;28;20032;-79
2023/07/11 02:37:53;;;;;;;2.80;2.20;;;;;;;;;;5097859;28;20028;-79
2023/07/11 02:40:19;;;;;;;3.95;2.50;;;;;;;;;;5116596;28;20043;-80
2023/07/11 02:42:46;;;;;;;4.18;3.28;;;;;;;;;;5113765;28;20035;-80
2023/07/11 02:45:12;;;;;;;6.88;2.65;;;;;;;;;;5112189;28;20455;-78
2023/07/11 02:47:39;;;;;;;5.18;3.72;;;;;;;;;;5105383;28;20039;-80
2023/07/11 02:50:05;;;;;;;2.97;2.78;;;;;;;;;;5091851;28;20060;-80
2023/07/11 02:52:33;;;;;;;8.68;2.97;;;;;;;;;;5090119;28;20047;-80
2023/07/11 02:54:59;;;;;;;2.70;2.40;;;;;;;;;;5091541;28;20037;-80
2023/07/11 02:57:25;;;;;;;2.75;2.05;;;;;;;;;;5056513;28;20032;-79
2023/07/11 02:59:51;;;;;;;2.25;2.10;;;;;;;;;;5091198;28;20024;-81
2023/07/11 03:02:17;;;;;;;2.85;2.47;;;;;;;;;;5091063;28;20063;-79
2023/07/11 03:04:43;;;;;;;2.17;2.03;;;;;;;;;;5091438;28;20068;-81
2023/07/11 03:07:09;;;;;;;1.90;1.80;;;;;;;;;;5090280;28;20573;-80
2023/07/11 03:09:37;;;;;;;3.80;2.47;;;;;;;;;;5091204;28;20383;-81
2023/07/11 03:12:03;;;;;;;2.33;2.15;;;;;;;;;;5089927;28;20055;-81
2023/07/11 03:14:29;;;;;;;2.67;2.47;;;;;;;;;;5092078;28;20038;-81
2023/07/11 03:16:55;;;;;;;5.07;2.58;;;;;;;;;;5091172;28;20115;-81
2023/07/11 03:19:21;;;;;;;5.72;2.70;;;;;;;;;;5090454;28;20040;-81
2023/07/11 03:21:48;;;;;;;2.72;2.17;;;;;;;;;;5090971;28;20070;-80
2023/07/11 03:24:14;;;;;;;4.78;2.13;;;;;;;;;;5090785;28;20465;-80
2023/07/11 03:26:40;;;;;;;3.88;2.13;;;;;;;;;;5091302;28;20086;-80
2023/07/11 03:29:06;;;;;;;4.00;2.53;;;;;;;;;;5091218;28;20039;-81
2023/07/11 03:31:32;;;;;;;3.80;2.67;;;;;;;;;;5090910;28;20051;-80
2023/07/11 03:33:58;;;;;;;4.38;2.95;;;;;;;;;;5091523;28;20510;-81
2023/07/11 03:36:24;;;;;;;2.53;2.33;;;;;;;;;;5089579;28;20512;-82
2023/07/11 03:38:50;;;;;;;5.65;3.30;;;;;;;;;;5091364;28;20077;-81
2023/07/11 03:41:16;;;;;;;5.78;2.50;;;;;;;;;;5090820;28;20105;-80
2023/07/11 03:43:42;;;;;;;2.30;2.10;;;;;;;;;;5091410;28;20387;-81
2023/07/11 03:46:08;;;;;;;4.95;2.92;;;;;;;;;;5092122;28;20085;-79
2023/07/11 03:48:34;;;;;;;6.25;3.58;;;;;;;;;;5091411;28;20535;-83
2023/07/11 03:51:00;;;;;;;2.80;2.20;;;;;;;;;;5093693;28;20039;-81
2023/07/11 03:53:26;;;;;;;2.08;1.88;;;;;;;;;;5092634;28;20502;-81
2023/07/11 03:55:52;;;;;;;3.22;2.42;;;;;;;;;;5098326;28;20097;-81
2023/07/11 03:58:18;;;;;;;3.22;2.90;;;;;;;;;;5101889;28;20036;-80
2023/07/11 04:00:48;;;;;;;2.60;2.40;;;;;;;;;;5101895;28;20043;-80
2023/07/11 04:03:14;;;;;;;4.72;3.47;;;;;;;;;;5093167;28;20085;-81
2023/07/11 04:05:40;;;;;;;4.50;2.67;;;;;;;;;;5092904;28;20114;-82
2023/07/11 04:08:07;;;;;;;13.43;4.25;;;;;;;;;;5092604;28;20605;-81
2023/07/11 04:10:33;;;;;;;3.85;2.55;;;;;;;;;;5090434;28;20040;-78
2023/07/11 04:13:00;;;;;;;3.03;2.50;;;;;;;;;;5090122;28;20040;-78
2023/07/11 04:15:25;;;;;;;4.25;2.85;;;;;;;;;;5090691;28;20035;-81
2023/07/11 04:17:52;;;;;;;2.25;2.10;;;;;;;;;;5090281;28;20498;-81
2023/07/11 04:20:18;;;;;;;2.28;2.03;;;;;;;;;;5089700;28;20119;-82
2023/07/11 04:22:43;;;;;;;4.93;2.10;;;;;;;;;;5090105;28;20450;-83
2023/07/11 04:25:10;;;;;;;2.10;2.00;;;;;;;;;;5089736;28;20119;-82
2023/07/11 04:27:36;;;;;;;2.08;1.92;;;;;;;;;;5091034;28;20440;-81
2023/07/11 04:30:02;;;;;;;2.15;1.80;;;;;;;;;;5089438;28;20529;-79
2023/07/11 04:32:29;;;;;;;1.90;1.80;;;;;;;;;;5092146;28;20518;-81
2023/07/11 04:34:55;;;;;;;3.13;1.30;;;;;;;;;;5094678;28;20032;-81
2023/07/11 04:37:22;;;;;;;3.45;1.70;;;;;;;;;;5094453;28;20135;-81
2023/07/11 04:39:47;;;;;;;1.65;1.55;;;;;;;;;;5094538;28;20115;-81
2023/07/11 04:42:14;;;;;;;2.88;1.98;;;;;;;;;;5093246;28;20036;-79
2023/07/11 04:44:40;;;;;;;1.80;1.40;;;;;;;;;;5095107;28;20039;-81
2023/07/11 04:47:06;;;;;;;2.67;1.58;;;;;;;;;;5094975;28;20084;-82
2023/07/11 04:49:32;;;;;;;1.77;1.50;;;;;;;;;;5093665;28;20032;-81
2023/07/11 04:51:58;;;;;;;2.17;1.77;;;;;;;;;;5093114;28;20051;-81
2023/07/11 04:54:24;;;;;;;4.82;2.25;;;;;;;;;;5094279;28;20028;-80
2023/07/11 04:56:58;;;;;;;2.78;1.90;;;;;;;;;;5093689;28;20104;-81
2023/07/11 04:59:24;;;;;;;1.98;1.80;;;;;;;;;;5093872;28;20039;-81
2023/07/11 05:01:50;;;;;;;1.52;1.48;;;;;;;;;;5094128;28;20047;-81
2023/07/11 05:04:16;;;;;;;2.00;1.80;;;;;;;;;;5093665;28;20028;-81
2023/07/11 05:06:43;;;;;;;2.97;1.50;;;;;;;;;;5075417;28;20414;-80
2023/07/11 05:09:09;;;;;;;4.88;1.83;;;;;;;;;;5093663;28;20114;-81
2023/07/11 05:11:35;;;;;;;2.42;1.60;;;;;;;;;;5093223;28;20549;-80
2023/07/11 05:14:01;;;;;;;1.63;1.52;;;;;;;;;;5093813;28;20036;-80
2023/07/11 05:16:29;;;;;;;4.72;2.47;;;;;;;;;;5093545;28;20032;-81
2023/07/11 05:18:55;;;;;;;1.80;1.70;;;;;;;;;;5076269;28;20100;-81
2023/07/11 05:21:21;;;;;;;1.88;1.77;;;;;;;;;;5094530;28;20028;-80
2023/07/11 05:23:47;;;;;;;1.63;1.52;;;;;;;;;;5115828;28;20021;-80
2023/07/11 05:26:13;;;;;;;2.92;1.70;;;;;;;;;;5110550;28;20099;-82
2023/07/11 05:28:39;;;;;;;4.18;1.50;;;;;;;;;;5115865;28;20040;-80
2023/07/11 05:31:06;;;;;;;1.50;1.40;;;;;;;;;;5112812;28;20032;-81
2023/07/11 05:33:32;;;;;;;3.28;2.10;;;;;;;;;;5094493;28;20513;-81
2023/07/11 05:38:54;;;;;;;3.38;1.90;;;;;;;;;;5092302;28;20036;-80
2023/07/11 05:41:20;;;;;;;1.30;1.20;;;;;;;;;;5093762;28;20028;-81
2023/07/11 05:43:48;;;;;;;4.18;1.95;;;;;;;;;;5075204;28;20032;-82
2023/07/11 05:46:14;;;;;;;3.30;1.60;;;;;;;;;;5092677;28;20044;-81
2023/07/11 05:48:40;;;;;;;1.67;1.30;;;;;;;;;;5091796;28;20039;-81
2023/07/11 05:51:07;;;;;;;1.48;1.38;;;;;;;;;;5093370;28;20130;-81
2023/07/11 05:53:33;;;;;;;2.65;1.30;;;;;;;;;;5091307;28;20036;-82
2023/07/11 05:55:59;;;;;;;5.65;1.85;;;;;;;;;;5092559;28;20042;-82
2023/07/11 05:58:26;;;;;;;1.27;1.27;;;;;;;;;;5092710;28;20107;-82
2023/07/11 06:00:52;;;;;;;2.22;1.20;;;;;;;;;;5075032;28;20036;-82
2023/07/11 06:03:19;;;;;;;1.80;1.70;;;;;;;;;;5091499;28;20036;-82
2023/07/11 06:05:45;;;;;;;1.85;1.63;;;;;;;;;;5090621;28;20478;-81
2023/07/11 06:08:12;;;;;;;2.83;1.88;;;;;;;;;;5092658;28;20047;-81
2023/07/11 06:10:38;;;;;;;2.03;1.40;;;;;;;;;;5090077;28;20105;-80
2023/07/11 06:13:04;;;;;;;1.23;1.23;;;;;;;;;;5092326;28;20139;-81
2023/07/11 06:15:30;;;;;;;2.40;1.50;;;;;;;;;;5092511;28;20070;-82
2023/07/11 06:17:56;;;;;;;1.23;1.17;;;;;;;;;;5094531;28;20060;-81
2023/07/11 06:20:22;;;;;;;2.58;1.10;;;;;;;;;;5093462;28;20052;-82
2023/07/11 06:22:48;;;;;;;1.42;1.20;;;;;;;;;;5092610;28;20039;-82
2023/07/11 06:25:14;;;;;;;4.68;1.30;;;;;;;;;;5091131;28;20165;-80
2023/07/11 06:27:40;;;;;;;1.50;1.40;;;;;;;;;;5091857;28;20126;-81
2023/07/11 06:30:06;;;;;;;2.63;1.27;;;;;;;;;;5090873;28;20655;-81
2023/07/11 06:32:33;;;;;;;2.33;1.40;;;;;;;;;;5091497;28;20047;-81
2023/07/11 06:34:59;;;;;;;4.03;1.05;;;;;;;;;;5090544;28;20032;-82
2023/07/11 06:37:25;;;;;;;3.92;1.50;;;;;;;;;;5091589;28;20047;-82
2023/07/11 06:39:51;;;;;;;2.03;1.08;;;;;;;;;;5090917;28;20063;-81
2023/07/11 06:42:17;;;;;;;1.20;1.10;;;;;;;;;;5092792;28;20042;-81
2023/07/11 06:44:43;;;;;;;1.90;1.38;;;;;;;;;;5091397;28;20529;-82
2023/07/11 06:47:09;;;;;;;4.00;1.33;;;;;;;;;;5091715;28;20078;-81
2023/07/11 06:49:35;;;;;;;1.20;1.20;;;;;;;;;;5092524;28;20028;-81
2023/07/11 06:52:02;;;;;;;1.20;1.10;;;;;;;;;;5092057;28;20044;-82
2023/07/11 06:54:28;;;;;;;2.05;1.15;;;;;;;;;;5092106;28;20427;-81
2023/07/11 06:56:54;;;;;;;5.60;1.20;;;;;;;;;;5092982;28;20123;-81
2023/07/11 06:59:21;;;;;;;0.95;0.90;;;;;;;;;;5093254;28;20043;-82
2023/07/11 07:01:47;;;;;;;1.88;1.52;;;;;;;;;;5075007;28;20173;-81
2023/07/11 07:04:14;;;;;;;4.20;1.17;;;;;;;;;;5092868;28;20069;-82
2023/07/11 07:06:40;;;;;;;3.30;1.30;;;;;;;;;;5091400;28;20081;-80
2023/07/11 07:09:06;;;;;;;2.42;1.90;;;;;;;;;;5092983;28;20459;-81
2023/07/11 07:11:32;;;;;;;6.15;2.50;;;;;;;;;;5091945;28;20067;-83
2023/07/11 07:13:59;;;;;;;3.58;1.35;;;;;;;;;;5091670;28;20044;-82
2023/07/11 07:16:26;;;;;;;2.67;1.40;;;;;;;;;;5092520;28;20050;-83
2023/07/11 07:18:52;;;;;;;3.50;1.70;;;;;;;;;;5092554;28;20134;-82
2023/07/11 07:21:18;;;;;;;3.55;1.58;;;;;;;;;;5090761;28;20068;-83
2023/07/11 07:23:45;;;;;;;1.60;1.42;;;;;;;;;;5103030;28;20024;-82
2023/07/11 07:26:11;;;;;;;1.48;1.20;;;;;;;;;;5103991;28;20150;-82
2023/07/11 07:28:37;;;;;;;2.05;1.67;;;;;;;;;;5096070;28;20040;-82
2023/07/11 07:31:05;;;;;;;1.38;1.25;;;;;;;;;;5092633;28;20043;-81
2023/07/11 07:33:31;;;;;;;1.50;1.40;;;;;;;;;;5092442;28;20051;-81
2023/07/11 07:35:58;;;;;;;2.25;1.40;;;;;;;;;;5091215;28;20035;-81
2023/07/11 07:38:27;;;;;;;1.90;1.75;;;;;;;;;;5093172;28;20044;-80
2023/07/11 07:40:54;;;;;;;3.13;1.50;;;;;;;;;;5091672;28;20028;-81
2023/07/11 07:43:20;;;;;;;1.65;1.50;;;;;;;;;;5091920;28;20039;-81
2023/07/11 07:45:52;;;;;;;1.70;1.60;;;;;;;;;;5091824;28;20032;-82
2023/07/11 07:48:18;;;;;;;3.58;1.38;;;;;;;;;;5090673;28;20127;-82
2023/07/11 07:50:44;;;;;;;1.45;1.27;;;;;;;;;;5074650;28;20047;-82
2023/07/11 07:53:11;;;;;;;3.42;1.40;;;;;;;;;;5090988;28;20233;-81
2023/07/11 07:55:37;;;;;;;3.30;1.42;;;;;;;;;;5090462;28;20040;-80
2023/07/11 07:58:03;;;;;;;1.50;1.40;;;;;;;;;;5091938;28;20468;-82
2023/07/11 08:00:29;;;;;;;8.48;3.58;;;;;;;;;;5092068;28;20036;-81
2023/07/11 08:02:55;;;;;;;2.20;2.00;;;;;;;;;;5094182;28;20036;-80
2023/07/11 08:05:21;;;;;;;6.38;3.45;;;;;;;;;;5098268;28;20028;-82
2023/07/11 08:07:48;;;;;;;6.18;2.40;;;;;;;;;;5113420;28;20012;-80
2023/07/11 08:10:15;;;;;;;8.35;3.72;;;;;;;;;;5119488;28;20012;-81
2023/07/11 08:12:41;;;;;;;6.03;1.80;;;;;;;;;;5074901;28;20045;-81
2023/07/11 08:15:08;;;;;;;3.13;1.73;;;;;;;;;;5055078;28;20029;-82
2023/07/11 08:17:34;;;;;;;1.75;1.63;;;;;;;;;;5060176;28;20060;-81
2023/07/11 08:20:00;;;;;;;1.65;1.38;;;;;;;;;;5054929;28;20037;-82
2023/07/11 08:22:26;;;;;;;1.60;1.50;;;;;;;;;;5056174;28;20035;-82
2023/07/11 08:24:52;;;;;;;1.80;1.70;;;;;;;;;;5055206;28;20084;-82
2023/07/11 08:27:18;;;;;;;1.55;1.45;;;;;;;;;;5055046;28;20068;-81
2023/07/11 08:29:45;;;;;;;1.70;1.60;;;;;;;;;;5054860;28;20480;-80
2023/07/11 08:32:11;;;;;;;1.80;1.70;;;;;;;;;;5036917;28;20404;-81
2023/07/11 08:34:37;;;;;;;1.67;1.52;;;;;;;;;;5054682;28;20040;-81
2023/07/11 08:37:04;;;;;;;1.10;1.10;;;;;;;;;;5053168;28;20413;-81
2023/07/11 08:39:30;;;;;;;1.70;1.60;;;;;;;;;;5053739;28;20095;-82
2023/07/11 08:41:56;;;;;;;1.88;1.60;;;;;;;;;;5051962;28;20028;-81
2023/07/11 08:44:22;;;;;;;1.60;1.52;;;;;;;;;;5053469;28;20071;-81
2023/07/11 08:46:50;;;;;;;1.83;1.58;;;;;;;;;;5052994;28;20508;-82
2023/07/11 08:49:19;;;;;;;1.60;1.60;;;;;;;;;;5035450;28;20500;-83
2023/07/11 08:51:46;;;;;;;2.03;1.50;;;;;;;;;;5053048;28;20025;-79
2023/07/11 08:54:28;;;;;;;3.55;1.52;;;;;;;;;;5052490;28;20091;-82
2023/07/11 08:56:55;;;;;;;2.45;1.20;;;;;;;;;;5052000;28;20029;-78
2023/07/11 08:59:27;;;;;;;2.75;1.35;;;;;;;;;;5052027;28;20037;-82
2023/07/11 09:01:52;;;;;;;2.05;1.38;;;;;;;;;;5053643;28;20037;-83
2023/07/11 09:04:20;;;;;;;3.33;1.92;;;;;;;;;;5053705;28;20527;-82
2023/07/11 09:06:48;;;;;;;3.80;1.40;;;;;;;;;;5054008;28;20407;-83
2023/07/11 09:09:14;;;;;;;1.55;1.38;;;;;;;;;;5052408;28;20056;-81
2023/07/11 09:11:49;;;;;;;5.82;1.88;;;;;;;;;;5076684;28;20056;-82
2023/07/11 09:14:22;;;;;;;2.95;1.30;;;;;;;;;;5092986;28;20067;-80
2023/07/11 09:17:09;;;;;;;3.55;1.40;;;;;;;;;;5092939;28;20117;-82
2023/07/11 09:19:35;;;;;;;1.60;1.50;;;;;;;;;;5082929;28;20051;-81
2023/07/11 09:22:20;;;;;;;1.45;1.40;;;;;;;;;;5093522;28;20117;-83
2023/07/11 09:24:46;;;;;;;2.20;1.20;;;;;;;;;;5093674;28;20039;-81
2023/07/11 09:27:14;;;;;;;1.48;1.48;;;;;;;;;;5093895;28;20036;-82
2023/07/11 09:29:41;;;;;;;2.13;1.50;;;;;;;;;;5094434;28;20118;-82
2023/07/11 09:32:08;;;;;;;2.85;1.50;;;;;;;;;;5093764;28;20043;-81
2023/07/11 09:34:34;;;;;;;2.03;1.77;;;;;;;;;;5094235;28;20046;-81
2023/07/11 09:37:03;;;;;;;3.60;1.35;;;;;;;;;;5092723;28;20406;-82
2023/07/11 09:39:39;;;;;;;1.42;1.10;;;;;;;;;;5093958;28;20032;-82
2023/07/11 09:42:23;;;;;;;2.88;1.70;;;;;;;;;;5093786;28;20119;-81
2023/07/11 09:45:13;;;;;;;2.15;1.23;;;;;;;;;;5092320;28;20618;-83
2023/07/11 09:47:39;;;;;;;1.83;1.30;;;;;;;;;;5085833;28;20122;-82
2023/07/11 09:50:27;;;;;;;1.65;1.55;;;;;;;;;;5091506;28;20119;-83
2023/07/11 09:52:53;;;;;;;4.13;1.50;;;;;;;;;;5091161;28;20122;-82
2023/07/11 09:55:23;;;;;;;2.10;1.30;;;;;;;;;;5092776;28;20405;-81
2023/07/11 09:57:49;;;;;;;2.92;1.30;;;;;;;;;;5092459;28;20406;-82
2023/07/11 10:00:16;;;;;;;1.98;1.77;;;;;;;;;;5091284;28;20092;-81
2023/07/11 10:02:46;;;;;;;2.00;1.90;;;;;;;;;;5090902;28;20069;-82
2023/07/11 10:05:18;;;;;;;1.33;1.23;;;;;;;;;;5091647;28;20043;-82
2023/07/11 10:07:44;;;;;;;1.20;1.15;;;;;;;;;;5092568;28;20150;-82
2023/07/11 10:10:16;;;;;;;1.90;1.63;;;;;;;;;;5092590;28;20043;-83
2023/07/11 10:12:43;;;;;;;1.48;1.23;;;;;;;;;;5093205;28;20453;-83
2023/07/11 10:15:13;;;;;;;3.22;1.30;;;;;;;;;;5092066;28;20035;-81
2023/07/11 10:17:39;;;;;;;3.10;1.45;;;;;;;;;;5092232;28;20032;-83
2023/07/11 10:20:06;;;;;;;1.95;1.40;;;;;;;;;;5091672;28;20089;-81
2023/07/11 10:22:36;;;;;;;1.15;1.10;;;;;;;;;;5090639;28;20039;-82
2023/07/11 10:25:11;;;;;;;3.42;1.70;;;;;;;;;;5091609;28;20371;-81
2023/07/11 10:27:37;;;;;;;1.70;1.45;;;;;;;;;;5091147;28;20164;-81
2023/07/11 10:30:05;;;;;;;1.60;1.50;;;;;;;;;;5089975;28;20129;-82
2023/07/11 10:32:47;;;;;;;1.60;1.50;;;;;;;;;;5094228;28;20549;-83
2023/07/11 10:35:14;;;;;;;2.00;1.88;;;;;;;;;;5094527;28;20533;-83
2023/07/11 10:37:41;;;;;;;1.75;1.65;;;;;;;;;;5058344;28;20568;-81
2023/07/11 10:40:10;;;;;;;6.05;1.90;;;;;;;;;;5093312;28;20031;-81
2023/07/11 10:42:40;;;;;;;2.92;1.25;;;;;;;;;;5099036;28;20036;-82
2023/07/11 10:45:17;;;;;;;2.13;1.83;;;;;;;;;;5101704;28;20036;-81
2023/07/11 10:47:52;;;;;;;1.23;1.13;;;;;;;;;;5103071;28;20036;-80
2023/07/11 10:50:30;;;;;;;1.33;1.23;;;;;;;;;;5102678;28;20101;-81
2023/07/11 10:52:57;;;;;;;1.65;1.13;;;;;;;;;;5099402;28;20039;-80
2023/07/11 10:55:27;;;;;;;1.00;1.00;;;;;;;;;;5110511;28;20051;-81
2023/07/11 10:57:53;;;;;;;1.02;0.90;;;;;;;;;;5110202;28;20031;-81
2023/07/11 11:00:38;;;;;;;3.17;1.20;;;;;;;;;;5082963;28;20036;-81
2023/07/11 11:03:13;;;;;;;1.38;1.00;;;;;;;;;;5092176;28;20502;-81
2023/07/11 11:05:42;;;;;;;1.20;1.10;;;;;;;;;;5091519;28;20059;-81
2023/07/11 11:08:11;;;;;;;4.47;1.50;;;;;;;;;;5091313;28;20040;-82
2023/07/11 11:10:48;;;;;;;1.33;1.23;;;;;;;;;;5073618;28;20040;-83
2023/07/11 11:13:37;;;;;;;2.47;1.40;;;;;;;;;;5090232;28;20043;-81
2023/07/11 11:16:23;;;;;;;1.48;1.00;;;;;;;;;;5083139;28;20044;-81
2023/07/11 11:19:01;;;;;;;3.30;2.15;;;;;;;;;;5090081;28;20036;-82
2023/07/11 11:21:30;;;;;;;1.63;1.52;;;;;;;;;;5090259;28;20040;-82
2023/07/11 11:24:14;;;;;;;3.28;2.40;;;;;;;;;;5073107;28;20098;-81
2023/07/11 11:26:59;;;;;;;1.58;1.48;;;;;;;;;;5091249;28;20397;-81
2023/07/11 11:29:30;;;;;;;3.97;1.88;;;;;;;;;;5091399;28;20524;-80
2023/07/11 11:32:23;;;;;;;2.47;1.92;;;;;;;;;;5089651;28;20036;-82
2023/07/11 11:35:03;;;;;;;4.53;1.83;;;;;;;;;;5088640;28;20044;-81
2023/07/11 11:37:29;;;;;;;1.35;1.25;;;;;;;;;;5090300;28;20035;-81
2023/07/11 11:39:55;;;;;;;1.90;1.30;;;;;;;;;;5090749;28;20036;-80
2023/07/11 11:42:23;;;;;;;1.17;1.10;;;;;;;;;;5096149;28;20517;-82
2023/07/11 11:45:15;;;;;;;2.53;1.55;;;;;;;;;;5094814;28;20032;-82
2023/07/11 11:47:41;;;;;;;3.20;1.20;;;;;;;;;;5091996;28;20051;-80
2023/07/11 11:50:12;;;;;;;1.27;1.27;;;;;;;;;;5097529;28;20056;-82
2023/07/11 11:52:38;;;;;;;2.00;1.50;;;;;;;;;;5095149;28;20529;-82
2023/07/11 11:55:28;;;;;;;2.80;1.50;;;;;;;;;;5095177;28;20600;-81
2023/07/11 11:57:54;;;;;;;1.50;1.40;;;;;;;;;;5067268;28;20147;-81
2023/07/11 12:00:31;;;;;;;3.85;1.85;;;;;;;;;;5095778;28;20046;-82
2023/07/11 12:02:57;;;;;;;2.75;1.30;;;;;;;;;;5094388;28;20040;-82
2023/07/11 12:05:23;;;;;;;3.60;1.40;;;;;;;;;;5094497;28;20085;-81
2023/07/11 12:08:07;;;;;;;1.15;1.15;;;;;;;;;;5094880;28;20067;-82
2023/07/11 12:10:34;;;;;;;1.40;1.30;;;;;;;;;;5095975;28;20521;-82
2023/07/11 12:13:25;;;;;;;4.63;1.40;;;;;;;;;;5094410;28;20051;-82
2023/07/11 12:15:52;;;;;;;2.88;1.77;;;;;;;;;;5094965;28;20052;-82
2023/07/11 12:18:49;;;;;;;2.60;1.60;;;;;;;;;;5095760;28;20028;-81
2023/07/11 12:21:14;;;;;;;1.67;1.58;;;;;;;;;;5084709;28;20044;-80
2023/07/11 12:23:51;;;;;;;4.18;1.90;;;;;;;;;;5102330;28;20042;-82
2023/07/11 12:26:22;;;;;;;3.45;1.75;;;;;;;;;;5112892;28;20395;-81
2023/07/11 12:28:48;;;;;;;;;;;;;;;;;;5096750;28;20032;-81
2023/07/11 12:31:23;;;;;;;3.28;1.75;;;;;;;;;;5115895;28;19979;-81
2023/07/11 12:33:59;;;;;;;2.17;1.70;;;;;;;;;;5114561;28;20054;-81
2023/07/11 12:36:32;;;;;;;4.80;2.38;;;;;;;;;;5117305;28;20012;-81
2023/07/11 12:39:17;;;;;;;3.35;1.52;;;;;;;;;;5113810;28;20059;-81
2023/07/11 12:42:15;;;;;;;1.80;1.70;;;;;;;;;;5112501;28;20114;-82
2023/07/11 12:44:41;;;;;;;5.07;2.17;;;;;;;;;;5079744;28;20051;-80
2023/07/11 12:47:09;;;;;;;2.17;1.75;;;;;;;;;;5112619;28;20036;-81
2023/07/11 12:49:34;;;;;;;2.83;2.20;;;;;;;;;;5111851;28;20100;-83
2023/07/11 12:52:14;;;;;;;2.58;1.85;;;;;;;;;;5094240;28;20040;-82
2023/07/11 12:54:41;;;;;;;1.80;1.70;;;;;;;;;;5112988;28;20043;-83
2023/07/11 12:57:14;;;;;;;1.95;1.40;;;;;;;;;;5109873;28;20579;-83
2023/07/11 12:59:40;;;;;;;1.70;1.60;;;;;;;;;;5100617;28;20040;-81
2023/07/11 13:02:06;;;;;;;2.72;1.40;;;;;;;;;;5101001;28;20040;-81
2023/07/11 13:04:36;;;;;;;1.75;1.55;;;;;;;;;;5102230;28;20035;-82
2023/07/11 13:07:12;;;;;;;1.77;1.67;;;;;;;;;;5098916;28;20546;-82
2023/07/11 13:09:45;;;;;;;2.88;1.58;;;;;;;;;;5094639;28;20106;-82
2023/07/11 13:12:17;;;;;;;2.67;1.70;;;;;;;;;;5093626;28;20060;-82
2023/07/11 13:14:47;;;;;;;2.42;1.65;;;;;;;;;;5094440;28;20123;-82
2023/07/11 13:17:14;;;;;;;5.07;1.90;;;;;;;;;;5092401;28;20052;-81
2023/07/11 13:19:40;;;;;;;9.32;1.90;;;;;;;;;;5094444;28;20577;-82
2023/07/11 13:22:09;;;;;;;2.20;2.00;;;;;;;;;;5093824;28;20127;-82
2023/07/11 13:24:35;;;;;;;4.47;2.30;;;;;;;;;;5093332;28;20067;-77
2023/07/11 13:27:03;;;;;;;3.42;2.40;;;;;;;;;;5092453;28;20092;-81
2023/07/11 13:29:37;;;;;;;4.43;2.10;;;;;;;;;;5093728;28;20036;-82
2023/07/11 13:32:04;;;;;;;4.03;2.40;;;;;;;;;;5075391;28;20036;-81
2023/07/11 13:34:30;;;;;;;3.38;1.80;;;;;;;;;;5109899;28;20032;-81
2023/07/11 13:36:56;;;;;;;3.40;2.30;;;;;;;;;;5117983;28;20029;-81
2023/07/11 13:39:24;;;;;;;3.13;2.30;;;;;;;;;;5118587;28;20039;-81
2023/07/11 13:41:51;;;;;;;6.57;2.75;;;;;;;;;;5110081;28;20034;-79
2023/07/11 13:44:26;;;;;;;2.90;2.70;;;;;;;;;;5094598;28;20032;-77
2023/07/11 13:46:52;;;;;;;3.78;2.70;;;;;;;;;;5075552;28;20036;-79
2023/07/11 13:49:18;;;;;;;4.07;2.70;;;;;;;;;;5091795;28;20039;-79
2023/07/11 13:51:43;;;;;;;2.67;2.13;;;;;;;;;;5093462;28;20031;-79
2023/07/11 13:54:23;;;;;;;3.58;2.33;;;;;;;;;;5093849;28;20521;-78
2023/07/11 13:56:49;;;;;;;2.17;2.08;;;;;;;;;;5095048;28;20028;-80
2023/07/11 13:59:16;;;;;;;2.47;2.30;;;;;;;;;;5095345;28;20468;-78
2023/07/11 14:01:42;;;;;;;3.40;2.20;;;;;;;;;;5096273;28;20044;-80
2023/07/11 14:04:35;;;;;;;2.33;2.22;;;;;;;;;;5100818;28;20032;-81
2023/07/11 14:07:01;;;;;;;2.85;2.40;;;;;;;;;;5096417;28;20074;-81
2023/07/11 14:09:27;;;;;;;4.10;2.20;;;;;;;;;;5096269;28;20032;-82
2023/07/11 14:11:53;;;;;;;3.08;2.42;;;;;;;;;;5094247;28;20083;-82
2023/07/11 14:14:19;;;;;;;3.67;2.85;;;;;;;;;;5092521;28;20485;-80
2023/07/11 14:16:45;;;;;;;3.03;2.70;;;;;;;;;;5093171;28;20375;-80
2023/07/11 14:19:34;;;;;;;4.18;2.70;;;;;;;;;;5095460;28;20040;-80
2023/07/11 14:22:02;;;;;;;3.88;3.55;;;;;;;;;;5102345;28;20028;-79
2023/07/11 14:24:29;;;;;;;6.38;2.90;;;;;;;;;;5102067;28;20032;-80
2023/07/11 14:26:54;;;;;;;4.35;3.33;;;;;;;;;;5104008;28;20055;-80
2023/07/11 14:29:24;;;;;;;3.30;3.00;;;;;;;;;;5103927;28;20080;-80
2023/07/11 14:31:50;;;;;;;3.03;2.75;;;;;;;;;;5104366;28;20092;-80
2023/07/11 14:34:17;;;;;;;2.75;2.55;;;;;;;;;;5107572;28;20036;-79
2023/07/11 14:36:43;;;;;;;2.95;2.75;;;;;;;;;;5109272;28;20028;-80
2023/07/11 14:39:09;;;;;;;2.85;2.55;;;;;;;;;;5107658;28;20046;-80
2023/07/11 14:41:35;;;;;;;2.88;2.55;;;;;;;;;;5108457;28;20035;-80
2023/07/11 14:44:01;;;;;;;2.60;2.40;;;;;;;;;;5110165;28;20036;-81
2023/07/11 14:46:27;;;;;;;2.75;2.58;;;;;;;;;;5110156;28;20157;-81
2023/07/11 14:48:53;;;;;;;2.40;2.20;;;;;;;;;;5111642;28;20071;-80
2023/07/11 14:51:19;;;;;;;2.78;2.45;;;;;;;;;;5088379;28;20040;-82
2023/07/11 14:53:45;;;;;;;2.30;2.20;;;;;;;;;;5093835;28;20105;-81